Time;durP1;ratioP1;P1;durP2;ratioP2;P2;SDS_P1;SDS_P2;PMS_P1;PMS_P2;Temp;Humidity;BMP_temperature;BMP_pressure;BME280_temperature;BME280_humidity;BME280_pressure;Samples;Min_cycle;Max_cycle;Signal;HPM_P1;HPM_P2
2021/01/07 00:02:39;;;;;;;54.38;28.77;;;;;;;7.19;73.92;101117.03;1692236;84;21443;-56
2021/01/07 00:05:43;;;;;;;54.55;29.00;;;;;;;7.20;73.99;101130.52;1689684;84;21245;-55
2021/01/07 00:08:49;;;;;;;60.08;29.55;;;;;;;7.22;73.86;101133.97;1692172;85;21956;-56
2021/01/07 00:11:56;;;;;;;57.05;29.63;;;;;;;7.22;73.91;101139.91;1692270;85;21237;-55
2021/01/07 00:15:01;;;;;;;47.58;24.82;;;;;;;7.20;73.90;101141.40;1692476;85;21456;-56
2021/01/07 00:18:07;;;;;;;35.78;19.23;;;;;;;7.18;73.90;101139.30;1692419;85;21383;-56
2021/01/07 00:21:14;;;;;;;37.13;20.65;;;;;;;7.20;73.92;101152.30;1692433;85;21483;-56
2021/01/07 00:24:19;;;;;;;34.90;19.90;;;;;;;7.18;73.94;101142.03;1692229;85;21384;-55
2021/01/07 00:27:24;;;;;;;34.27;18.82;;;;;;;7.19;73.99;101142.90;1692074;85;21363;-55
2021/01/07 00:30:31;;;;;;;38.92;19.40;;;;;;;7.20;73.88;101144.12;1698551;84;21307;-55
2021/01/07 00:33:35;;;;;;;28.17;16.30;;;;;;;7.18;73.88;101140.67;1683841;84;21378;-55
2021/01/07 00:36:41;;;;;;;31.75;18.75;;;;;;;7.17;73.78;101135.36;1683671;85;21275;-56
2021/01/07 00:39:47;;;;;;;27.00;16.07;;;;;;;7.14;73.85;101130.19;1683868;84;21394;-55
2021/01/07 00:42:51;;;;;;;30.40;17.90;;;;;;;7.09;73.80;101130.60;1678087;84;21370;-56
2021/01/07 00:46:01;;;;;;;31.80;19.20;;;;;;;7.05;73.83;101129.16;1691140;85;21216;-55
2021/01/07 00:49:06;;;;;;;30.52;17.70;;;;;;;7.01;73.97;101130.90;1665779;83;21551;-56
2021/01/07 00:52:12;;;;;;;25.43;15.55;;;;;;;7.02;74.03;101127.20;1666804;86;21196;-55
2021/01/07 00:55:18;;;;;;;24.87;16.02;;;;;;;6.98;73.95;101113.48;1628692;87;21326;-55
2021/01/07 00:58:25;;;;;;;24.00;14.15;;;;;;;6.91;74.11;101109.07;1683343;84;21247;-56
2021/01/07 01:01:30;;;;;;;26.65;15.35;;;;;;;6.91;74.29;101113.67;1683630;85;21354;-55
2021/01/07 01:04:35;;;;;;;22.17;14.55;;;;;;;6.91;74.34;101098.19;1683957;84;21236;-56
2021/01/07 01:07:41;;;;;;;22.05;13.68;;;;;;;6.94;74.44;101091.14;1683880;84;21410;-55
2021/01/07 01:10:46;;;;;;;20.45;13.72;;;;;;;6.97;74.24;101089.99;1684278;85;21414;-56
2021/01/07 01:13:53;;;;;;;19.05;11.78;;;;;;;6.89;73.94;101086.59;1684066;84;21264;-55
2021/01/07 01:16:59;;;;;;;15.85;11.53;;;;;;;6.78;73.91;101083.09;1683759;85;21491;-55
2021/01/07 01:20:06;;;;;;;18.87;12.40;;;;;;;6.70;73.92;101086.48;1683397;85;21292;-55
2021/01/07 01:23:13;;;;;;;16.70;11.75;;;;;;;6.62;73.98;101087.65;1684415;84;21414;-55
2021/01/07 01:26:25;;;;;;;17.27;12.63;;;;;;;6.61;74.24;101080.98;1683894;85;21346;-56
2021/01/07 01:29:31;;;;;;;19.60;11.45;;;;;;;6.66;74.23;101076.84;1683550;84;21370;-56
2021/01/07 01:32:38;;;;;;;14.90;10.80;;;;;;;6.69;74.01;101080.66;1683404;84;21347;-55
2021/01/07 01:35:43;;;;;;;14.33;10.78;;;;;;;6.69;73.95;101080.66;1683539;85;21354;-55
2021/01/07 01:38:48;;;;;;;13.90;10.03;;;;;;;6.72;73.86;101081.78;1683419;84;21434;-56
2021/01/07 01:41:55;;;;;;;12.40;10.10;;;;;;;6.71;73.72;101083.24;1688620;84;21335;-55
2021/01/07 01:45:02;;;;;;;18.92;11.48;;;;;;;6.68;73.63;101090.31;1720120;83;21366;-55
2021/01/07 01:48:08;;;;;;;13.93;11.38;;;;;;;6.62;73.65;101093.09;1727793;81;21417;-55
2021/01/07 01:51:14;;;;;;;15.60;11.00;;;;;;;6.59;73.75;101089.28;1712400;82;21588;-54
2021/01/07 01:54:19;;;;;;;12.23;9.35;;;;;;;6.53;73.71;101087.59;1712515;82;21370;-55
2021/01/07 01:57:26;;;;;;;14.90;10.75;;;;;;;6.43;73.74;101092.95;1712451;84;21234;-56
2021/01/07 02:00:32;;;;;;;12.93;10.90;;;;;;;6.35;73.90;101091.39;1712111;83;21227;-56
2021/01/07 02:03:37;;;;;;;16.07;11.15;;;;;;;6.32;74.06;101098.95;1717418;82;21216;-55
2021/01/07 02:06:43;;;;;;;16.62;11.97;;;;;;;6.30;74.24;101107.23;1712268;83;21275;-55
2021/01/07 02:09:53;;;;;;;13.32;10.38;;;;;;;6.26;74.20;101108.50;1712476;82;21284;-55
2021/01/07 02:12:58;;;;;;;11.12;8.63;;;;;;;6.21;74.24;101102.59;1717625;82;21382;-56
2021/01/07 02:16:05;;;;;;;13.55;9.73;;;;;;;6.07;74.15;101108.34;1716684;83;21706;-56
2021/01/07 02:19:10;;;;;;;23.12;11.48;;;;;;;5.88;74.49;101104.09;1687768;84;21233;-55
2021/01/07 02:22:16;;;;;;;15.90;10.70;;;;;;;5.83;74.88;101109.91;1692017;85;21228;-55
2021/01/07 02:25:22;;;;;;;15.63;10.43;;;;;;;5.78;74.89;101099.01;1712024;83;21220;-54
2021/01/07 02:28:28;;;;;;;18.77;11.15;;;;;;;5.68;75.15;101101.63;1711735;82;21248;-55
2021/01/07 02:31:33;;;;;;;17.85;10.60;;;;;;;5.66;75.48;101095.97;1711859;83;21200;-55
2021/01/07 02:34:38;;;;;;;15.45;9.78;;;;;;;5.63;75.60;101086.69;1712127;82;21217;-55
2021/01/07 02:37:46;;;;;;;14.63;9.55;;;;;;;5.62;75.70;101085.84;1712285;82;21216;-55
2021/01/07 02:40:52;;;;;;;14.70;9.75;;;;;;;5.58;75.55;101074.85;1712931;83;21227;-54
2021/01/07 02:43:58;;;;;;;15.40;10.08;;;;;;;5.55;75.57;101071.03;1712372;82;21252;-55
2021/01/07 02:47:04;;;;;;;16.32;8.03;;;;;;;5.55;75.48;101066.12;1717222;83;21359;-55
2021/01/07 02:50:13;;;;;;;20.55;8.03;;;;;;;5.48;75.32;101075.27;1660483;86;21204;-55
2021/01/07 02:53:18;;;;;;;11.57;6.85;;;;;;;5.35;75.35;101075.90;1684526;81;21515;-54
2021/01/07 02:56:23;;;;;;;10.03;6.35;;;;;;;5.31;75.56;101071.69;1682693;85;21359;-55
2021/01/07 02:59:29;;;;;;;10.30;6.92;;;;;;;5.34;75.66;101077.39;1688412;85;21386;-55
2021/01/07 03:02:35;;;;;;;11.12;4.97;;;;;;;5.30;75.47;101090.82;1719615;82;21297;-55
2021/01/07 03:05:42;;;;;;;10.05;6.90;;;;;;;5.14;75.33;101104.78;1718930;83;21224;-55
2021/01/07 03:08:49;;;;;;;10.25;5.78;;;;;;;4.97;75.67;101107.12;1719238;82;21373;-56
2021/01/07 03:11:58;;;;;;;9.98;6.25;;;;;;;4.94;75.77;101108.72;1718947;83;21370;-55
2021/01/07 03:15:05;;;;;;;9.50;5.72;;;;;;;4.88;75.91;101095.17;1719304;83;21358;-56
2021/01/07 03:18:13;;;;;;;12.25;5.53;;;;;;;4.87;76.12;101084.45;1719754;82;21269;-60
2021/01/07 03:21:19;;;;;;;6.80;4.90;;;;;;;4.87;75.96;101075.80;1719394;83;21358;-55
2021/01/07 03:24:24;;;;;;;8.73;4.95;;;;;;;4.80;75.94;101070.98;1719659;82;21378;-55
2021/01/07 03:27:30;;;;;;;7.62;4.97;;;;;;;4.84;76.13;101049.40;1719747;83;21362;-55
2021/01/07 03:30:38;;;;;;;9.45;5.55;;;;;;;4.90;76.07;101043.51;1719031;83;21220;-55
2021/01/07 03:33:42;;;;;;;10.88;4.97;;;;;;;5.00;76.08;101056.19;1719950;82;21368;-56
2021/01/07 03:36:47;;;;;;;7.35;4.87;;;;;;;5.08;75.79;101050.14;1719646;83;21393;-54
2021/01/07 03:39:52;;;;;;;7.78;5.08;;;;;;;5.12;75.52;101058.41;1718599;83;21204;-55
2021/01/07 03:42:58;;;;;;;10.48;5.30;;;;;;;5.14;75.36;101060.00;1719689;82;21721;-55
2021/01/07 03:46:05;;;;;;;9.35;5.42;;;;;;;5.16;75.31;101055.32;1719503;83;21362;-56
2021/01/07 03:49:12;;;;;;;9.40;5.30;;;;;;;5.20;75.41;101043.21;1719110;82;21255;-55
2021/01/07 03:52:17;;;;;;;9.75;4.90;;;;;;;5.26;75.36;101045.94;1716616;82;21379;-55
2021/01/07 03:55:22;;;;;;;10.48;5.03;;;;;;;5.32;75.13;101033.20;1727576;83;21357;-55
2021/01/07 03:58:27;;;;;;;7.90;4.65;;;;;;;5.35;75.20;101021.61;1727278;81;22030;-56
2021/01/07 04:01:33;;;;;;;6.53;4.40;;;;;;;5.43;75.08;101020.96;1727146;83;21886;-56
2021/01/07 04:04:39;;;;;;;7.03;4.10;;;;;;;5.47;74.84;101030.59;1727214;81;21377;-56
2021/01/07 04:07:45;;;;;;;10.68;5.30;;;;;;;5.51;74.61;101021.19;1726791;81;21243;-55
2021/01/07 04:10:52;;;;;;;8.53;4.75;;;;;;;5.49;74.46;101009.59;1727460;83;21737;-55
2021/01/07 04:13:57;;;;;;;7.50;4.58;;;;;;;5.52;74.39;101009.33;1727820;81;21430;-55
2021/01/07 04:17:03;;;;;;;10.15;5.25;;;;;;;5.52;74.62;101001.17;1727918;83;21263;-56
2021/01/07 04:20:08;;;;;;;9.45;5.40;;;;;;;5.59;74.75;101003.76;1727783;83;21502;-55
2021/01/07 04:23:13;;;;;;;8.90;5.45;;;;;;;5.65;74.64;100986.94;1727766;81;21369;-54
2021/01/07 04:26:18;;;;;;;11.63;5.78;;;;;;;5.68;74.62;100984.83;1712402;82;21224;-55
2021/01/07 04:29:24;;;;;;;9.13;5.37;;;;;;;5.70;74.38;100976.06;1727174;81;21413;-55
2021/01/07 04:32:30;;;;;;;12.23;6.67;;;;;;;5.69;74.59;100964.81;1727801;83;21450;-54
2021/01/07 04:35:35;;;;;;;11.80;6.33;;;;;;;5.71;74.55;100964.69;1727752;83;21369;-54
2021/01/07 04:38:41;;;;;;;10.53;6.62;;;;;;;5.69;74.57;100970.25;1726963;81;21433;-55
2021/01/07 04:41:46;;;;;;;12.37;7.12;;;;;;;5.71;74.81;100960.13;1727842;83;21402;-54
2021/01/07 04:44:52;;;;;;;10.90;6.87;;;;;;;5.78;74.88;100951.83;1727821;81;21437;-56
2021/01/07 04:47:58;;;;;;;13.65;7.97;;;;;;;5.86;74.84;100956.14;1727624;81;21386;-56
2021/01/07 04:51:03;;;;;;;13.05;7.55;;;;;;;5.93;74.71;100948.33;1727751;83;21663;-55
2021/01/07 04:54:09;;;;;;;11.20;6.92;;;;;;;5.96;74.61;100942.11;1724051;81;21390;-55
2021/01/07 04:57:14;;;;;;;12.28;6.60;;;;;;;5.99;74.51;100928.77;1717817;83;21335;-55
2021/01/07 05:00:21;;;;;;;15.95;7.85;;;;;;;6.03;74.28;100939.72;1718504;83;21431;-55
2021/01/07 05:03:31;;;;;;;14.18;8.08;;;;;;;6.05;74.24;100942.69;1717710;82;21417;-55
2021/01/07 05:06:36;;;;;;;11.70;8.00;;;;;;;6.09;74.11;100941.90;1718178;83;21358;-55
2021/01/07 05:09:43;;;;;;;16.50;8.25;;;;;;;6.08;73.91;100945.14;1717437;82;21264;-55
2021/01/07 05:12:49;;;;;;;17.73;9.10;;;;;;;5.99;73.53;100946.44;1717831;82;21224;-55
2021/01/07 05:15:55;;;;;;;18.30;9.48;;;;;;;5.83;74.00;100937.39;1717686;83;21382;-55
2021/01/07 05:19:00;;;;;;;22.62;11.10;;;;;;;5.87;74.28;100944.27;1717613;82;21224;-55
2021/01/07 05:22:06;;;;;;;27.45;12.75;;;;;;;5.90;74.40;100941.28;1717997;83;21327;-54
2021/01/07 05:25:20;;;;;;;24.95;11.73;;;;;;;5.92;74.45;100935.72;1689105;84;21232;-55
2021/01/07 05:28:26;;;;;;;27.50;12.47;;;;;;;5.94;74.60;100928.30;1688993;83;21737;-55
2021/01/07 05:31:35;;;;;;;27.52;11.80;;;;;;;5.97;74.66;100930.75;1689238;84;21303;-55
2021/01/07 05:34:53;;;;;;;26.37;11.30;;;;;;;5.94;74.67;100931.02;1688932;83;21360;-55
2021/01/07 05:37:58;;;;;;;23.12;12.10;;;;;;;5.93;74.75;100936.10;1674336;83;21239;-55
2021/01/07 05:41:05;;;;;;;27.75;11.97;;;;;;;5.93;74.82;100935.58;1689265;84;21291;-55
2021/01/07 05:44:12;;;;;;;21.68;11.12;;;;;;;5.89;74.86;100942.30;1689452;83;21239;-55
2021/01/07 05:47:17;;;;;;;21.73;10.58;;;;;;;5.81;74.93;100948.84;1689296;84;21607;-55
2021/01/07 05:50:22;;;;;;;20.65;9.58;;;;;;;5.73;75.01;100943.69;1689194;84;21243;-54
2021/01/07 05:53:28;;;;;;;18.17;9.50;;;;;;;5.62;75.21;100942.39;1689026;83;21247;-55
2021/01/07 05:56:33;;;;;;;16.75;9.83;;;;;;;5.49;75.43;100939.86;1685431;84;21322;-55
2021/01/07 05:59:42;;;;;;;21.52;11.00;;;;;;;5.39;75.91;100937.55;1683442;84;21335;-55
2021/01/07 06:02:50;;;;;;;19.62;10.20;;;;;;;5.38;76.22;100939.91;1684057;84;21382;-55
2021/01/07 06:05:56;;;;;;;21.55;10.82;;;;;;;5.35;76.30;100921.66;1683866;85;21958;-55
2021/01/07 06:09:02;;;;;;;25.35;12.78;;;;;;;5.26;76.36;100930.09;1683347;84;21245;-56
2021/01/07 06:12:07;;;;;;;19.62;10.80;;;;;;;5.18;76.66;100934.43;1683675;85;21288;-55
2021/01/07 06:15:20;;;;;;;22.70;12.63;;;;;;;5.13;76.91;100936.17;1683823;85;21442;-55
2021/01/07 06:18:26;;;;;;;19.55;10.35;;;;;;;5.08;77.06;100923.97;1683555;84;21255;-55
2021/01/07 06:21:31;;;;;;;21.95;10.72;;;;;;;5.01;77.22;100921.41;1668023;85;21730;-55
2021/01/07 06:24:39;;;;;;;26.97;13.53;;;;;;;5.01;77.47;100922.77;1682539;84;21366;-56
2021/01/07 06:27:45;;;;;;;25.05;13.00;;;;;;;5.04;77.52;100917.09;1682390;84;21390;-58
2021/01/07 06:30:51;;;;;;;24.05;13.45;;;;;;;5.10;77.62;100904.36;1671121;84;21219;-56
2021/01/07 06:33:58;;;;;;;28.05;12.95;;;;;;;5.16;77.65;100902.00;1712231;83;21443;-57
2021/01/07 06:37:02;;;;;;;22.60;11.50;;;;;;;5.25;77.53;100888.16;1713295;83;21218;-55
2021/01/07 06:40:12;;;;;;;26.45;14.40;;;;;;;5.35;77.40;100891.80;1699751;83;21781;-56
2021/01/07 06:43:23;;;;;;;25.70;14.18;;;;;;;5.38;77.19;100890.17;1692493;83;21268;-57
2021/01/07 06:46:54;;;;;;;25.55;13.32;;;;;;;5.44;77.23;100878.81;1712018;83;21606;-56
2021/01/07 06:50:01;;;;;;;30.27;14.17;;;;;;;5.52;77.11;100885.30;1713286;83;21356;-56
2021/01/07 06:53:09;;;;;;;28.12;14.83;;;;;;;5.51;76.82;100878.64;1697083;83;21252;-56
2021/01/07 06:56:22;;;;;;;27.52;14.45;;;;;;;5.49;76.87;100869.27;1696145;82;21942;-55
2021/01/07 06:59:31;;;;;;;36.28;17.85;;;;;;;5.52;76.98;100871.72;1712525;84;21248;-56
2021/01/07 07:02:37;;;;;;;38.25;16.02;;;;;;;5.55;77.01;100884.19;1712465;84;21244;-56
2021/01/07 07:05:46;;;;;;;29.02;14.65;;;;;;;5.59;76.96;100877.48;1712491;84;21216;-55
2021/01/07 07:08:53;;;;;;;33.02;15.48;;;;;;;5.55;76.81;100878.23;1712421;84;21286;-56
2021/01/07 07:12:02;;;;;;;31.35;15.83;;;;;;;5.59;77.04;100880.20;1711838;84;21298;-55
2021/01/07 07:15:08;;;;;;;34.48;14.53;;;;;;;5.66;77.02;100875.45;1712342;84;21699;-55
2021/01/07 07:18:13;;;;;;;32.13;14.93;;;;;;;5.71;76.94;100879.12;1687850;83;21317;-56
2021/01/07 07:21:26;;;;;;;31.82;14.63;;;;;;;5.73;77.02;100865.80;1682493;85;21359;-56
2021/01/07 07:24:49;;;;;;;27.55;13.48;;;;;;;5.76;76.83;100860.09;1712426;82;21251;-55
2021/01/07 07:28:04;;;;;;;30.85;14.58;;;;;;;5.71;76.92;100856.04;1712579;82;21382;-56
2021/01/07 07:31:09;;;;;;;30.82;15.15;;;;;;;5.72;77.10;100850.99;1687758;85;21265;-55
2021/01/07 07:34:14;;;;;;;36.60;15.72;;;;;;;5.80;77.12;100857.45;1682588;84;21284;-56
2021/01/07 07:37:28;;;;;;;33.15;14.30;;;;;;;5.79;77.08;100849.44;1712780;83;21258;-55
2021/01/07 07:40:46;;;;;;;34.65;17.70;;;;;;;5.82;77.25;100847.36;1712341;84;21876;-55
2021/01/07 07:43:52;;;;;;;33.35;16.95;;;;;;;5.88;77.18;100835.11;1687783;83;21254;-56
2021/01/07 07:47:00;;;;;;;47.15;21.93;;;;;;;5.94;77.30;100830.48;1682099;85;21373;-56
2021/01/07 07:50:08;;;;;;;38.75;17.90;;;;;;;5.99;77.28;100820.08;1711782;84;21216;-56
2021/01/07 07:53:19;;;;;;;42.50;21.97;;;;;;;6.04;77.31;100817.81;1687360;83;21217;-55
2021/01/07 07:56:31;;;;;;;46.50;23.67;;;;;;;6.09;77.41;100812.31;1681965;85;21351;-56
2021/01/07 07:59:38;;;;;;;55.17;30.30;;;;;;;6.17;77.37;100808.06;1712436;82;21256;-55
2021/01/07 08:02:44;;;;;;;52.38;26.10;;;;;;;6.23;77.40;100804.30;1687756;83;21225;-55
2021/01/07 08:05:49;;;;;;;37.42;17.25;;;;;;;6.34;77.53;100796.52;1682647;85;21391;-55
2021/01/07 08:08:55;;;;;;;36.23;20.15;;;;;;;6.43;77.38;100798.40;1694304;84;21252;-55
2021/01/07 08:12:03;;;;;;;26.77;14.38;;;;;;;6.51;77.25;100794.00;1687732;85;21257;-55
2021/01/07 08:15:10;;;;;;;26.50;14.95;;;;;;;6.53;77.02;100786.56;1682389;85;21387;-55
2021/01/07 08:18:24;;;;;;;28.62;15.53;;;;;;;6.52;76.99;100779.87;1712517;82;21228;-56
2021/01/07 08:21:32;;;;;;;20.80;11.95;;;;;;;6.53;77.12;100780.25;1687388;85;21209;-56
2021/01/07 08:24:38;;;;;;;22.10;12.50;;;;;;;6.60;77.03;100780.03;1682413;84;21386;-55
2021/01/07 08:27:43;;;;;;;23.18;12.75;;;;;;;6.55;76.82;100776.91;1712391;82;21247;-56
2021/01/07 08:31:12;;;;;;;21.50;12.68;;;;;;;6.53;76.87;100776.18;1687795;85;21207;-56
2021/01/07 08:34:18;;;;;;;18.62;11.03;;;;;;;6.53;77.02;100792.00;1682009;84;21363;-56
2021/01/07 08:37:25;;;;;;;24.47;14.00;;;;;;;6.57;77.03;100789.34;1712359;84;21220;-56
2021/01/07 08:40:31;;;;;;;18.75;11.12;;;;;;;6.58;77.13;100782.89;1687639;83;21205;-56
2021/01/07 08:43:37;;;;;;;14.90;8.40;;;;;;;6.55;76.90;100765.50;1682578;84;21387;-55
2021/01/07 08:46:53;;;;;;;17.50;11.08;;;;;;;6.51;77.03;100768.16;1712085;83;21264;-55
2021/01/07 08:50:20;;;;;;;15.78;9.35;;;;;;;6.46;77.05;100758.69;1687294;85;21190;-55
2021/01/07 08:53:26;;;;;;;13.83;8.10;;;;;;;6.45;77.29;100741.53;1630559;85;21263;-55
2021/01/07 08:56:42;;;;;;;11.80;7.30;;;;;;;6.48;77.45;100724.94;1682957;85;21676;-54
2021/01/07 08:59:47;;;;;;;9.18;5.83;;;;;;;6.45;77.38;100719.78;1635876;82;21718;-55
2021/01/07 09:02:53;;;;;;;9.83;6.50;;;;;;;6.44;77.55;100733.00;1628423;86;21311;-55
2021/01/07 09:06:14;;;;;;;12.20;7.62;;;;;;;6.42;77.65;100719.20;1690365;83;21467;-57
2021/01/07 09:09:20;;;;;;;12.18;6.65;;;;;;;6.37;77.67;100718.27;1651502;86;21363;-56
2021/01/07 09:12:38;;;;;;;10.90;7.47;;;;;;;6.34;78.00;100715.83;1685520;84;21380;-56
2021/01/07 09:15:43;;;;;;;15.10;8.43;;;;;;;6.38;78.20;100704.15;1717610;83;21361;-56
2021/01/07 09:18:48;;;;;;;15.50;9.83;;;;;;;6.49;78.42;100702.16;1717320;82;21960;-55
2021/01/07 09:21:54;;;;;;;14.20;8.10;;;;;;;6.54;78.25;100694.45;1719075;83;21216;-57
2021/01/07 09:25:00;;;;;;;15.35;9.35;;;;;;;6.57;78.29;100691.44;1684000;84;21719;-56
2021/01/07 09:28:07;;;;;;;16.67;9.13;;;;;;;6.54;78.32;100671.81;1692778;85;21247;-56
2021/01/07 09:31:12;;;;;;;17.37;10.43;;;;;;;6.53;78.45;100673.70;1687561;85;21362;-56
2021/01/07 09:34:17;;;;;;;16.80;10.53;;;;;;;6.52;78.62;100682.84;1717562;82;21808;-55
2021/01/07 09:37:30;;;;;;;14.20;8.78;;;;;;;6.52;78.77;100673.33;1716137;83;21295;-57
2021/01/07 09:40:35;;;;;;;17.73;9.53;;;;;;;6.52;78.85;100666.52;1685834;85;21414;-57
2021/01/07 09:43:43;;;;;;;16.02;9.40;;;;;;;6.51;78.92;100655.30;1719601;83;21397;-55
2021/01/07 09:46:50;;;;;;;15.30;9.85;;;;;;;6.55;79.12;100673.03;1719669;83;21350;-55
2021/01/07 09:49:56;;;;;;;19.48;11.85;;;;;;;6.58;79.27;100674.63;1719183;83;21362;-56
2021/01/07 09:53:01;;;;;;;18.52;11.45;;;;;;;6.61;79.38;100681.97;1717907;83;21378;-55
2021/01/07 09:56:07;;;;;;;20.32;12.37;;;;;;;6.66;79.47;100673.41;1717311;83;21338;-56
2021/01/07 09:59:12;;;;;;;22.85;13.25;;;;;;;6.80;79.62;100668.36;1716667;82;21378;-55
2021/01/07 10:02:18;;;;;;;20.65;12.60;;;;;;;6.96;79.49;100660.47;1707963;83;21255;-55
2021/01/07 10:05:25;;;;;;;24.75;15.88;;;;;;;7.11;79.29;100649.98;1707816;84;21208;-56
2021/01/07 10:08:32;;;;;;;24.72;14.38;;;;;;;7.22;79.04;100642.50;1707871;84;21215;-55
2021/01/07 10:11:38;;;;;;;34.60;17.27;;;;;;;7.33;78.92;100644.17;1707801;84;21299;-56
2021/01/07 10:14:44;;;;;;;22.22;14.28;;;;;;;7.42;78.58;100631.89;1707798;84;21299;-56
2021/01/07 10:17:49;;;;;;;25.10;15.35;;;;;;;7.46;78.38;100621.06;1707825;84;21228;-55
2021/01/07 10:20:54;;;;;;;33.83;20.32;;;;;;;7.43;78.25;100615.92;1693768;84;21256;-56
2021/01/07 10:24:00;;;;;;;27.62;16.67;;;;;;;7.43;78.27;100609.61;1706626;82;21267;-55
2021/01/07 10:27:10;;;;;;;21.82;13.38;;;;;;;7.44;78.30;100604.00;1707004;84;21201;-55
2021/01/07 10:30:17;;;;;;;24.40;14.60;;;;;;;7.47;78.39;100594.17;1707475;84;21263;-56
2021/01/07 10:33:23;;;;;;;23.62;14.70;;;;;;;7.52;78.43;100585.04;1685130;83;21217;-56
2021/01/07 10:36:28;;;;;;;21.17;13.78;;;;;;;7.57;78.34;100577.28;1716950;83;21212;-56
2021/01/07 10:39:33;;;;;;;23.70;14.03;;;;;;;7.60;78.31;100563.84;1684693;84;21307;-56
2021/01/07 10:42:38;;;;;;;22.30;13.98;;;;;;;7.64;78.26;100567.47;1716619;82;21354;-56
2021/01/07 10:45:44;;;;;;;25.15;15.15;;;;;;;7.71;78.20;100556.81;1716552;83;22215;-56
2021/01/07 10:48:50;;;;;;;25.82;17.17;;;;;;;7.71;78.00;100547.28;1685013;84;21365;-56
2021/01/07 10:52:18;;;;;;;26.93;17.15;;;;;;;7.70;78.05;100537.91;1715245;83;21382;-55
2021/01/07 10:55:34;;;;;;;25.32;15.78;;;;;;;7.74;77.94;100536.59;1716084;83;21374;-55
2021/01/07 10:58:57;;;;;;;27.30;15.50;;;;;;;7.72;77.89;100519.55;1674958;85;21743;-55
2021/01/07 11:02:39;;;;;;;24.23;15.58;;;;;;;7.71;77.78;100516.48;1711638;80;21299;-55
2021/01/07 11:05:48;;;;;;;29.40;18.25;;;;;;;7.68;77.91;100499.05;1718478;83;21366;-55
2021/01/07 11:09:13;;;;;;;27.82;17.57;;;;;;;7.66;77.94;100497.84;1718955;83;21381;-55
2021/01/07 11:12:28;;;;;;;30.48;17.82;;;;;;;7.61;78.03;100492.02;1684479;85;21170;-55
2021/01/07 11:15:36;;;;;;;29.98;18.25;;;;;;;7.66;78.25;100480.66;1665909;85;21232;-56
2021/01/07 11:18:42;;;;;;;32.08;20.08;;;;;;;7.70;78.20;100483.41;1686957;85;21206;-55
2021/01/07 11:21:51;;;;;;;31.12;20.00;;;;;;;7.66;78.23;100468.40;1686577;85;21174;-56
2021/01/07 11:25:01;;;;;;;33.35;20.65;;;;;;;7.58;78.30;100465.93;1708707;83;21228;-56
2021/01/07 11:28:05;;;;;;;28.25;18.07;;;;;;;7.56;78.50;100458.41;1640989;85;21233;-56
2021/01/07 11:31:10;;;;;;;30.92;20.52;;;;;;;7.58;78.67;100455.03;1653412;86;21285;-55
2021/01/07 11:34:16;;;;;;;33.13;20.97;;;;;;;7.57;78.73;100449.74;1682929;84;21765;-55
2021/01/07 11:37:51;;;;;;;29.75;18.32;;;;;;;7.63;78.88;100448.62;1682266;85;21584;-56
2021/01/07 11:41:05;;;;;;;31.70;18.10;;;;;;;7.68;78.81;100442.70;1682030;85;21256;-55
2021/01/07 11:44:34;;;;;;;30.50;19.80;;;;;;;7.67;78.87;100436.05;1682993;84;21765;-56
2021/01/07 11:47:42;;;;;;;28.35;17.90;;;;;;;7.68;78.83;100433.16;1682994;84;21220;-56
2021/01/07 11:50:50;;;;;;;29.90;17.73;;;;;;;7.69;78.93;100428.58;1683240;85;21347;-56
2021/01/07 11:53:55;;;;;;;28.30;16.97;;;;;;;7.69;78.93;100419.05;1683525;84;21956;-55
2021/01/07 11:57:00;;;;;;;26.00;16.75;;;;;;;7.69;78.86;100413.59;1711446;84;21279;-55
2021/01/07 12:00:07;;;;;;;26.87;17.87;;;;;;;7.69;78.88;100400.81;1686932;85;21193;-56
2021/01/07 12:03:12;;;;;;;28.73;17.32;;;;;;;7.64;78.93;100395.83;1682637;83;21547;-56
2021/01/07 12:06:19;;;;;;;25.30;17.00;;;;;;;7.66;79.04;100386.14;1719116;83;21216;-54
2021/01/07 12:09:41;;;;;;;26.10;16.32;;;;;;;7.66;78.98;100379.33;1718673;82;21223;-56
2021/01/07 12:12:49;;;;;;;27.27;16.42;;;;;;;7.61;79.01;100382.53;1717696;82;21172;-56
2021/01/07 12:15:57;;;;;;;26.70;16.90;;;;;;;7.64;79.19;100381.38;1688176;84;21278;-56
2021/01/07 12:19:03;;;;;;;24.75;15.50;;;;;;;7.67;79.20;100370.66;1688892;83;21290;-55
2021/01/07 12:22:16;;;;;;;24.90;15.10;;;;;;;7.70;79.17;100366.25;1688900;84;21262;-56
2021/01/07 12:25:24;;;;;;;24.75;15.32;;;;;;;7.75;79.20;100360.70;1688861;85;21244;-55
2021/01/07 12:28:31;;;;;;;22.73;15.20;;;;;;;7.79;78.97;100357.98;1689237;83;21251;-55
2021/01/07 12:31:37;;;;;;;22.35;14.50;;;;;;;7.82;79.07;100345.94;1689067;85;21780;-55
2021/01/07 12:34:53;;;;;;;24.30;14.93;;;;;;;7.84;78.96;100337.06;1689915;83;21780;-55
2021/01/07 12:38:25;;;;;;;20.40;13.00;;;;;;;7.81;78.83;100329.22;1687244;83;21247;-56
2021/01/07 12:41:35;;;;;;;20.72;13.28;;;;;;;7.83;78.83;100323.11;1689059;84;21255;-56
2021/01/07 12:44:42;;;;;;;23.02;15.13;;;;;;;7.91;79.01;100306.81;1689111;83;21258;-55
2021/01/07 12:47:50;;;;;;;23.65;14.73;;;;;;;8.04;78.97;100312.16;1689254;83;21259;-55
2021/01/07 12:51:00;;;;;;;23.02;13.78;;;;;;;8.14;78.76;100301.14;1689811;84;21227;-54
2021/01/07 12:54:07;;;;;;;19.48;12.25;;;;;;;8.19;78.39;100302.38;1689139;83;21254;-56
2021/01/07 12:57:29;;;;;;;18.25;11.75;;;;;;;8.20;78.12;100304.58;1689031;84;21235;-56
2021/01/07 13:00:36;;;;;;;16.70;10.20;;;;;;;8.19;77.99;100301.52;1688849;84;21279;-55
2021/01/07 13:04:05;;;;;;;21.65;11.95;;;;;;;8.11;77.80;100291.92;1684671;84;21823;-56
2021/01/07 13:07:11;;;;;;;17.05;11.12;;;;;;;8.05;77.88;100285.77;1683261;85;21417;-56
2021/01/07 13:10:17;;;;;;;17.32;12.00;;;;;;;8.04;77.95;100279.98;1668911;85;21231;-56
2021/01/07 13:13:23;;;;;;;18.15;11.90;;;;;;;7.99;77.93;100274.98;1684015;84;21789;-56
2021/01/07 13:16:28;;;;;;;15.30;10.88;;;;;;;8.02;78.15;100261.06;1685612;84;21224;-55
2021/01/07 13:19:35;;;;;;;14.23;9.55;;;;;;;8.09;78.15;100255.78;1684392;85;21263;-56
2021/01/07 13:22:41;;;;;;;15.18;9.83;;;;;;;8.13;78.07;100244.42;1685125;85;21351;-56
2021/01/07 13:25:48;;;;;;;13.55;8.55;;;;;;;8.16;77.92;100256.86;1623117;87;21423;-56
2021/01/07 13:28:53;;;;;;;13.03;8.65;;;;;;;8.15;77.72;100257.89;1656468;84;21324;-55
2021/01/07 13:32:00;;;;;;;11.50;8.80;;;;;;;8.08;77.63;100258.18;1648610;86;21197;-56
2021/01/07 13:35:08;;;;;;;14.23;8.43;;;;;;;7.97;77.68;100266.64;1708816;83;21342;-56
2021/01/07 13:38:14;;;;;;;13.95;8.18;;;;;;;7.83;77.87;100264.02;1711257;83;21240;-56
2021/01/07 13:41:18;;;;;;;13.38;8.88;;;;;;;7.81;78.22;100259.73;1711964;83;21203;-56
2021/01/07 13:44:24;;;;;;;13.50;8.78;;;;;;;7.78;78.36;100266.87;1711444;83;21239;-56
2021/01/07 13:47:30;;;;;;;10.50;7.90;;;;;;;7.73;78.54;100262.40;1714440;83;21216;-56
2021/01/07 13:50:37;;;;;;;9.83;7.42;;;;;;;7.71;78.80;100250.30;1711460;83;21189;-56
2021/01/07 13:53:43;;;;;;;13.35;9.05;;;;;;;7.71;78.96;100246.75;1716295;83;21216;-56
2021/01/07 13:56:54;;;;;;;13.20;8.35;;;;;;;7.70;79.14;100231.39;1719290;83;21780;-56
2021/01/07 14:00:02;;;;;;;12.15;8.83;;;;;;;7.71;79.41;100224.95;1719360;83;21290;-57
2021/01/07 14:03:07;;;;;;;12.58;8.18;;;;;;;7.72;79.54;100219.84;1718408;82;21270;-56
2021/01/07 14:06:13;;;;;;;16.48;9.68;;;;;;;7.73;79.71;100213.36;1717508;83;21223;-56
2021/01/07 14:09:29;;;;;;;20.65;11.78;;;;;;;7.75;79.84;100199.94;1717712;82;21910;-56
2021/01/07 14:12:38;;;;;;;14.38;9.70;;;;;;;7.80;79.94;100207.63;1692546;83;21388;-56
2021/01/07 14:15:43;;;;;;;15.83;9.23;;;;;;;7.80;79.84;100203.00;1718067;83;21390;-56
2021/01/07 14:18:52;;;;;;;13.98;8.90;;;;;;;7.77;79.94;100207.42;1692211;85;21384;-56
2021/01/07 14:21:57;;;;;;;17.52;10.53;;;;;;;7.76;80.03;100204.36;1692392;84;21384;-56
2021/01/07 14:25:02;;;;;;;13.05;9.48;;;;;;;7.77;80.23;100199.25;1717211;83;21585;-55
2021/01/07 14:28:20;;;;;;;16.32;9.85;;;;;;;7.82;80.39;100185.16;1717221;83;21271;-55
2021/01/07 14:31:27;;;;;;;11.35;7.83;;;;;;;7.83;80.36;100181.41;1717326;83;21855;-55